createdAt,value
2024-05-09T00:01:46.826Z,6.30
2024-05-09T00:04:49.674Z,5.60
2024-05-09T00:07:52.529Z,5.90
2024-05-09T00:10:55.335Z,6.30
2024-05-09T00:13:58.233Z,6.20
2024-05-09T00:17:00.983Z,6.40
2024-05-09T00:20:10.933Z,5.70
2024-05-09T00:23:16.836Z,6.10
2024-05-09T00:26:19.661Z,5.80
2024-05-09T00:29:22.942Z,5.70
2024-05-09T00:32:25.906Z,5.80
2024-05-09T00:35:29.073Z,5.20
2024-05-09T00:38:32.013Z,6.10
2024-05-09T00:41:34.962Z,6.00
2024-05-09T00:44:37.800Z,6.00
2024-05-09T00:47:42.794Z,6.00
2024-05-09T00:50:46.736Z,5.60
2024-05-09T00:53:49.633Z,5.60
2024-05-09T00:56:53.072Z,6.00
2024-05-09T00:59:56.281Z,6.30
2024-05-09T01:02:59.302Z,6.00
2024-05-09T01:06:02.310Z,5.70
2024-05-09T01:09:05.190Z,5.60
2024-05-09T01:12:08.539Z,5.70
2024-05-09T01:15:11.447Z,5.50
2024-05-09T01:18:14.872Z,5.80
2024-05-09T01:21:17.882Z,5.30
2024-05-09T01:24:20.630Z,5.50
2024-05-09T01:27:23.409Z,5.50
2024-05-09T01:30:33.021Z,6.00
2024-05-09T01:33:38.516Z,5.60
2024-05-09T01:36:41.544Z,5.80
2024-05-09T01:39:44.331Z,4.90
2024-05-09T01:42:47.069Z,6.20
2024-05-09T01:45:49.744Z,5.50
2024-05-09T01:48:52.565Z,5.90
2024-05-09T01:51:55.409Z,5.60
2024-05-09T01:54:58.695Z,5.50
2024-05-09T01:58:02.439Z,5.60
2024-05-09T02:01:05.676Z,5.40
2024-05-09T02:04:08.734Z,5.50
2024-05-09T02:07:11.572Z,5.10
2024-05-09T02:10:20.426Z,5.60
2024-05-09T02:13:28.716Z,5.00
2024-05-09T02:16:31.523Z,5.40
2024-05-09T02:19:34.342Z,5.10
2024-05-09T02:22:37.264Z,5.20
2024-05-09T02:25:40.718Z,5.20
2024-05-09T02:28:43.548Z,5.50
2024-05-09T02:31:46.462Z,5.20
2024-05-09T02:34:49.330Z,5.30
2024-05-09T02:37:52.154Z,4.60
2024-05-09T02:40:54.839Z,5.20
2024-05-09T02:43:57.740Z,5.60
2024-05-09T02:47:00.525Z,5.90
2024-05-09T02:50:04.571Z,5.80
2024-05-09T02:53:09.931Z,5.00
2024-05-09T02:56:12.991Z,4.70
2024-05-09T02:59:15.976Z,4.80
2024-05-09T03:02:18.877Z,4.80
2024-05-09T03:05:21.860Z,5.10
2024-05-09T03:08:25.933Z,4.90
2024-05-09T03:11:28.839Z,4.60
2024-05-09T03:14:31.740Z,5.00
2024-05-09T03:17:34.751Z,5.80
2024-05-09T03:20:38.735Z,4.60
2024-05-09T03:23:43.172Z,4.90
2024-05-09T03:26:46.397Z,5.00
2024-05-09T03:29:49.143Z,5.10
2024-05-09T03:32:51.993Z,5.00
2024-05-09T03:35:54.863Z,4.90
2024-05-09T03:38:57.846Z,5.10
2024-05-09T03:42:00.655Z,5.20
2024-05-09T03:45:03.745Z,5.20
2024-05-09T03:48:08.825Z,4.80
2024-05-09T03:51:12.009Z,5.30
2024-05-09T03:54:14.839Z,5.00
2024-05-09T03:57:17.619Z,4.30
2024-05-09T04:00:30.408Z,4.40
2024-05-09T04:03:38.962Z,4.50
2024-05-09T04:06:42.435Z,5.00
2024-05-09T04:09:45.150Z,4.50
2024-05-09T04:12:47.814Z,4.80
2024-05-09T04:15:50.553Z,4.70
2024-05-09T04:18:53.435Z,6.10
2024-05-09T04:21:56.330Z,5.60
2024-05-09T04:24:59.113Z,4.60
2024-05-09T04:28:02.011Z,4.70
2024-05-09T04:31:05.092Z,5.10
2024-05-09T04:34:07.948Z,5.40
2024-05-09T04:37:10.883Z,5.60
2024-05-09T04:40:24.114Z,4.80
2024-05-09T04:43:34.694Z,4.90
2024-05-09T04:46:38.955Z,5.00
2024-05-09T04:49:42.013Z,5.30
2024-05-09T04:52:44.673Z,5.20
2024-05-09T04:55:47.638Z,4.60
2024-05-09T04:58:50.537Z,5.10
2024-05-09T05:01:53.529Z,4.90
2024-05-09T05:04:56.563Z,5.00
2024-05-09T05:08:00.039Z,5.00
2024-05-09T05:11:03.176Z,4.90
2024-05-09T05:14:06.003Z,4.80
2024-05-09T05:17:09.001Z,5.10
2024-05-09T05:20:15.253Z,5.10
2024-05-09T05:23:22.144Z,5.60
2024-05-09T05:26:24.931Z,5.70
2024-05-09T05:29:27.859Z,5.40
2024-05-09T05:32:30.814Z,5.20
2024-05-09T05:35:34.429Z,5.70
2024-05-09T05:38:37.433Z,5.70
2024-05-09T05:41:40.269Z,6.30
2024-05-09T05:44:42.968Z,5.70
2024-05-09T05:47:46.054Z,6.10
2024-05-09T05:50:49.056Z,6.90
2024-05-09T05:53:51.933Z,6.20
2024-05-09T05:56:54.656Z,5.70
2024-05-09T05:59:57.304Z,5.50
2024-05-09T06:03:00.103Z,5.70
2024-05-09T06:06:03.754Z,5.50
2024-05-09T06:09:06.832Z,5.20
2024-05-09T06:12:09.722Z,5.70
2024-05-09T06:15:12.688Z,5.40
2024-05-09T06:18:15.834Z,5.20
2024-05-09T06:21:18.699Z,6.10
2024-05-09T06:24:21.387Z,6.00
2024-05-09T06:27:24.204Z,5.80
2024-05-09T06:30:36.501Z,6.20
2024-05-09T06:33:42.510Z,5.50
2024-05-09T06:36:45.446Z,5.90
2024-05-09T06:39:48.172Z,5.90
2024-05-09T06:42:51.102Z,6.00
2024-05-09T06:45:53.823Z,6.40
2024-05-09T06:48:56.967Z,6.70
2024-05-09T06:51:59.857Z,6.60
2024-05-09T06:55:02.612Z,6.10
2024-05-09T06:58:06.848Z,6.70
2024-05-09T07:01:09.734Z,6.10
2024-05-09T07:04:12.793Z,6.00
2024-05-09T07:07:15.810Z,5.80
2024-05-09T07:10:25.802Z,5.90
2024-05-09T07:13:35.356Z,5.60
2024-05-09T07:16:38.076Z,5.80
2024-05-09T07:19:40.921Z,5.40
2024-05-09T07:22:43.856Z,6.10
2024-05-09T07:25:46.704Z,5.40
